createdAt,value
2023-02-16T00:00:35.460Z,1028.99
2023-02-16T00:01:35.442Z,1028.98
2023-02-16T00:02:35.453Z,1029.00
2023-02-16T00:03:35.439Z,1028.97
2023-02-16T00:04:35.422Z,1028.97
2023-02-16T00:05:35.423Z,1028.97
2023-02-16T00:06:35.391Z,1028.92
2023-02-16T00:07:35.371Z,1028.92
2023-02-16T00:08:35.361Z,1028.91
2023-02-16T00:09:35.622Z,1028.87
2023-02-16T00:10:35.350Z,1028.84
2023-02-16T00:11:35.333Z,1028.81
2023-02-16T00:12:35.351Z,1028.81
2023-02-16T00:13:35.301Z,1028.80
2023-02-16T00:14:35.326Z,1028.76
2023-02-16T00:15:35.344Z,1028.72
2023-02-16T00:16:35.306Z,1028.69
2023-02-16T00:17:35.263Z,1028.67
2023-02-16T00:18:35.244Z,1028.63
2023-02-16T00:19:35.251Z,1028.58
2023-02-16T00:20:35.263Z,1028.58
2023-02-16T00:21:35.230Z,1028.37
2023-02-16T00:22:35.223Z,1028.28
2023-02-16T00:23:35.201Z,1028.26
2023-02-16T00:24:35.172Z,1028.24
2023-02-16T00:25:35.192Z,1028.23
2023-02-16T00:26:35.205Z,1028.19
2023-02-16T00:27:35.161Z,1028.18
2023-02-16T00:28:35.151Z,1028.20
2023-02-16T00:29:35.149Z,1028.17
2023-02-16T00:30:35.192Z,1028.18
2023-02-16T00:31:35.286Z,1028.17
2023-02-16T00:32:35.103Z,1028.17
2023-02-16T00:33:35.085Z,1028.13
2023-02-16T00:34:35.087Z,1028.11
2023-02-16T00:35:35.063Z,1028.09
2023-02-16T00:36:35.098Z,1028.13
2023-02-16T00:37:35.077Z,1028.12
2023-02-16T00:38:35.027Z,1028.11
2023-02-16T00:39:43.062Z,1028.12
2023-02-16T00:40:34.996Z,1028.13
2023-02-16T00:41:35.020Z,1028.08
2023-02-16T00:42:42.026Z,1028.08
2023-02-16T00:43:34.971Z,1028.05
2023-02-16T00:44:34.974Z,1028.02
2023-02-16T00:45:34.970Z,1028.03
2023-02-16T00:46:34.977Z,1028.04
2023-02-16T00:47:34.938Z,1028.04
2023-02-16T00:48:34.926Z,1028.03
2023-02-16T00:49:34.925Z,1027.81
2023-02-16T00:50:34.901Z,1027.77
2023-02-16T00:51:35.205Z,1027.79
2023-02-16T00:52:34.902Z,1027.82
2023-02-16T00:53:34.871Z,1027.82
2023-02-16T00:54:34.867Z,1027.82
2023-02-16T00:55:34.872Z,1027.81
2023-02-16T00:56:34.849Z,1027.77
2023-02-16T00:57:34.836Z,1027.76
2023-02-16T00:58:34.820Z,1027.73
2023-02-16T00:59:34.817Z,1027.69
2023-02-16T01:00:34.812Z,1027.68
2023-02-16T01:01:34.863Z,1027.66
2023-02-16T01:02:34.785Z,1027.65
2023-02-16T01:03:34.776Z,1027.64
2023-02-16T01:04:34.816Z,1027.63
2023-02-16T01:05:34.749Z,1027.60
2023-02-16T01:06:34.741Z,1027.54
2023-02-16T01:07:34.727Z,1027.52
2023-02-16T01:08:34.722Z,1027.54
2023-02-16T01:09:34.712Z,1027.48
2023-02-16T01:10:34.697Z,1027.49
2023-02-16T01:11:34.666Z,1027.32
2023-02-16T01:12:34.683Z,1027.32
2023-02-16T01:13:34.648Z,1027.32
2023-02-16T01:14:34.637Z,1027.33
2023-02-16T01:15:34.709Z,1027.25
2023-02-16T01:16:34.614Z,1027.21
2023-02-16T01:17:34.639Z,1027.20
2023-02-16T01:18:34.611Z,1027.20
2023-02-16T01:19:34.592Z,1027.18
2023-02-16T01:20:34.616Z,1027.15
2023-02-16T01:21:34.625Z,1027.10
2023-02-16T01:22:34.537Z,1027.10
2023-02-16T01:23:34.546Z,1027.10
2023-02-16T01:24:34.522Z,1027.11
2023-02-16T01:25:34.516Z,1027.10
2023-02-16T01:26:34.508Z,1027.12
2023-02-16T01:27:34.500Z,1027.11
2023-02-16T01:28:34.466Z,1027.11
2023-02-16T01:29:34.466Z,1027.12
2023-02-16T01:30:34.496Z,1027.07
2023-02-16T01:31:34.575Z,1027.05
2023-02-16T01:32:34.437Z,1026.85
2023-02-16T01:33:34.435Z,1026.83
2023-02-16T01:34:34.416Z,1027.02
2023-02-16T01:35:34.431Z,1027.03
2023-02-16T01:36:34.428Z,1026.82
2023-02-16T01:37:34.409Z,1026.83
2023-02-16T01:38:34.379Z,1026.81
2023-02-16T01:39:34.379Z,1026.79
2023-02-16T01:40:34.363Z,1026.79
2023-02-16T01:41:34.336Z,1026.83
2023-02-16T01:42:34.361Z,1026.81
2023-02-16T01:43:34.325Z,1026.83
2023-02-16T01:44:34.312Z,1026.82
2023-02-16T01:45:34.326Z,1026.80
2023-02-16T01:46:34.372Z,1026.76
2023-02-16T01:47:34.300Z,1026.74
2023-02-16T01:48:34.298Z,1026.74
2023-02-16T01:49:34.270Z,1026.73
2023-02-16T01:50:34.257Z,1026.71
2023-02-16T01:51:34.230Z,1026.69
2023-02-16T01:52:34.243Z,1026.67
2023-02-16T01:53:34.217Z,1026.65
2023-02-16T01:54:34.222Z,1026.65
2023-02-16T01:55:34.206Z,1026.63
2023-02-16T01:56:34.200Z,1026.59
2023-02-16T01:57:34.461Z,1026.60
2023-02-16T01:58:34.154Z,1026.62
2023-02-16T01:59:34.152Z,1026.61
2023-02-16T02:00:34.140Z,1026.57
2023-02-16T02:01:34.186Z,1026.61
2023-02-16T02:02:34.215Z,1026.41
2023-02-16T02:03:34.120Z,1026.37
2023-02-16T02:04:34.104Z,1026.35
2023-02-16T02:05:34.109Z,1026.32
2023-02-16T02:06:34.071Z,1026.27
2023-02-16T02:07:34.064Z,1026.27
2023-02-16T02:08:34.054Z,1026.27
2023-02-16T02:09:34.043Z,1026.27
2023-02-16T02:10:41.362Z,1026.27
2023-02-16T02:11:41.025Z,1026.27
2023-02-16T02:12:41.028Z,1026.25
2023-02-16T02:13:41.036Z,1026.25
2023-02-16T02:14:40.998Z,1026.23
2023-02-16T02:15:43.437Z,1026.22
2023-02-16T02:16:34.249Z,1026.19
2023-02-16T02:17:33.952Z,1026.18
2023-02-16T02:18:33.930Z,1026.16
2023-02-16T02:19:33.920Z,1026.16
2023-02-16T02:20:33.928Z,1026.15
2023-02-16T02:21:33.919Z,1025.95
2023-02-16T02:22:33.891Z,1025.93
2023-02-16T02:23:34.008Z,1025.90
2023-02-16T02:24:33.860Z,1025.87
2023-02-16T02:25:33.891Z,1025.86
2023-02-16T02:26:33.863Z,1025.83
2023-02-16T02:27:33.847Z,1025.83
2023-02-16T02:28:33.857Z,1025.80
2023-02-16T02:29:33.810Z,1025.78
2023-02-16T02:30:33.856Z,1025.78
2023-02-16T02:31:33.892Z,1025.75
2023-02-16T02:32:33.781Z,1025.74
2023-02-16T02:33:33.789Z,1025.73
2023-02-16T02:34:33.772Z,1025.74
2023-02-16T02:35:33.770Z,1025.56
2023-02-16T02:36:33.732Z,1025.54
2023-02-16T02:37:33.732Z,1025.51
2023-02-16T02:38:33.709Z,1025.53
2023-02-16T02:39:33.712Z,1025.53
2023-02-16T02:40:35.442Z,1025.52
2023-02-16T02:41:33.688Z,1025.55
2023-02-16T02:42:33.672Z,1025.53
2023-02-16T02:43:33.679Z,1025.54
2023-02-16T02:44:33.654Z,1025.55
2023-02-16T02:45:33.643Z,1025.55
2023-02-16T02:46:33.710Z,1025.52
2023-02-16T02:47:33.609Z,1025.50
2023-02-16T02:48:33.610Z,1025.52
2023-02-16T02:49:33.591Z,1025.50
2023-02-16T02:50:33.588Z,1025.44
2023-02-16T02:51:33.609Z,1025.47
2023-02-16T02:52:33.559Z,1025.43
2023-02-16T02:53:33.565Z,1025.46
2023-02-16T02:54:33.550Z,1025.45
2023-02-16T02:55:33.549Z,1025.43
2023-02-16T02:56:33.513Z,1025.44
2023-02-16T02:57:33.512Z,1025.40
2023-02-16T02:58:33.530Z,1025.41
2023-02-16T02:59:33.529Z,1025.40
2023-02-16T03:00:33.578Z,1025.41
2023-02-16T03:01:33.474Z,1025.39
2023-02-16T03:02:33.454Z,1025.38
2023-02-16T03:03:33.446Z,1025.36
2023-02-16T03:04:33.438Z,1025.33
2023-02-16T03:05:33.425Z,1025.32
2023-02-16T03:06:33.428Z,1025.14
2023-02-16T03:07:33.405Z,1025.11
2023-02-16T03:08:33.381Z,1025.11
2023-02-16T03:09:33.411Z,1025.10
2023-02-16T03:10:33.628Z,1025.10
2023-02-16T03:11:33.343Z,1025.08
2023-02-16T03:12:33.332Z,1025.10
2023-02-16T03:13:33.359Z,1025.09
2023-02-16T03:14:33.318Z,1025.09
2023-02-16T03:15:33.324Z,1025.04
2023-02-16T03:16:33.327Z,1025.04
2023-02-16T03:17:33.291Z,1025.01
2023-02-16T03:18:33.282Z,1025.00
2023-02-16T03:19:33.276Z,1024.98
2023-02-16T03:20:33.277Z,1024.98
2023-02-16T03:21:33.542Z,1024.96
2023-02-16T03:22:33.220Z,1024.94
2023-02-16T03:23:33.258Z,1024.94
2023-02-16T03:24:33.233Z,1024.75
2023-02-16T03:25:33.229Z,1024.97
2023-02-16T03:26:33.490Z,1024.95
2023-02-16T03:27:33.171Z,1024.94
2023-02-16T03:28:33.172Z,1024.97
2023-02-16T03:29:33.189Z,1024.96
2023-02-16T03:30:36.113Z,1024.93
2023-02-16T03:31:33.261Z,1024.77
2023-02-16T03:32:33.123Z,1024.93
2023-02-16T03:33:33.125Z,1024.75
2023-02-16T03:34:33.150Z,1024.78
2023-02-16T03:35:33.129Z,1024.71
2023-02-16T03:36:33.073Z,1024.76
2023-02-16T03:37:33.065Z,1024.94
2023-02-16T03:38:33.336Z,1024.75
2023-02-16T03:39:33.115Z,1024.94
2023-02-16T03:40:35.873Z,1024.97
2023-02-16T03:41:33.027Z,1024.93
2023-02-16T03:42:33.268Z,1024.76
2023-02-16T03:43:32.993Z,1024.71
2023-02-16T03:44:33.311Z,1024.66
2023-02-16T03:45:40.080Z,1024.65
2023-02-16T03:46:40.955Z,1024.62
2023-02-16T03:47:39.953Z,1024.60
2023-02-16T03:48:39.943Z,1024.60
2023-02-16T03:49:40.939Z,1024.61
2023-02-16T03:50:35.667Z,1024.63
2023-02-16T03:51:32.912Z,1024.62
2023-02-16T03:52:35.711Z,1024.58
2023-02-16T03:53:32.890Z,1024.60
2023-02-16T03:54:33.172Z,1024.57
2023-02-16T03:55:32.895Z,1024.41
2023-02-16T03:56:32.870Z,1024.39
2023-02-16T03:57:32.846Z,1024.39
2023-02-16T03:58:32.823Z,1024.34
2023-02-16T03:59:36.880Z,1024.36
2023-02-16T04:00:32.815Z,1024.34
2023-02-16T04:01:32.820Z,1024.29
2023-02-16T04:02:32.856Z,1024.28
2023-02-16T04:03:32.769Z,1024.26
2023-02-16T04:04:32.795Z,1024.23
2023-02-16T04:05:32.749Z,1024.24
2023-02-16T04:06:32.756Z,1024.28
2023-02-16T04:07:32.743Z,1024.29
2023-02-16T04:08:32.726Z,1024.33
2023-02-16T04:09:32.706Z,1024.31
2023-02-16T04:10:32.700Z,1024.34
2023-02-16T04:11:32.691Z,1024.31
2023-02-16T04:12:32.679Z,1024.35
2023-02-16T04:13:32.645Z,1024.33
2023-02-16T04:14:32.652Z,1024.35
2023-02-16T04:15:32.629Z,1024.33
2023-02-16T04:16:32.705Z,1024.31
2023-02-16T04:17:32.599Z,1024.28
2023-02-16T04:18:32.606Z,1024.27
2023-02-16T04:19:32.594Z,1024.25
2023-02-16T04:20:32.631Z,1024.22
2023-02-16T04:21:32.571Z,1024.01
2023-02-16T04:22:32.569Z,1023.99
2023-02-16T04:23:32.558Z,1023.99
2023-02-16T04:24:32.538Z,1023.98
2023-02-16T04:25:32.504Z,1023.98
2023-02-16T04:26:32.565Z,1023.93
2023-02-16T04:27:32.496Z,1023.92
2023-02-16T04:28:32.486Z,1023.89
2023-02-16T04:29:32.475Z,1023.85
2023-02-16T04:30:32.991Z,1023.67
2023-02-16T04:31:32.584Z,1023.64
2023-02-16T04:32:32.437Z,1023.64
2023-02-16T04:33:32.432Z,1023.64
2023-02-16T04:34:32.426Z,1023.62
2023-02-16T04:35:32.404Z,1023.63
2023-02-16T04:36:32.434Z,1023.60
2023-02-16T04:37:32.372Z,1023.59
2023-02-16T04:38:32.366Z,1023.57
2023-02-16T04:39:32.367Z,1023.58
2023-02-16T04:40:35.152Z,1023.58
2023-02-16T04:41:32.338Z,1023.58
2023-02-16T04:42:32.335Z,1023.54
2023-02-16T04:43:32.313Z,1023.56
2023-02-16T04:44:32.314Z,1023.55
2023-02-16T04:45:35.001Z,1023.56
2023-02-16T04:46:32.305Z,1023.58
2023-02-16T04:47:32.292Z,1023.60
2023-02-16T04:48:32.257Z,1023.61
2023-02-16T04:49:32.245Z,1023.59
2023-02-16T04:50:32.244Z,1023.58
2023-02-16T04:51:32.252Z,1023.49
2023-02-16T04:52:32.218Z,1023.35
2023-02-16T04:53:32.203Z,1023.34
2023-02-16T04:54:32.196Z,1023.32
2023-02-16T04:55:32.181Z,1023.33
2023-02-16T04:56:32.183Z,1023.34
2023-02-16T04:57:32.161Z,1023.55
2023-02-16T04:58:32.158Z,1023.55
2023-02-16T04:59:32.136Z,1023.56
2023-02-16T05:00:32.124Z,1023.53
2023-02-16T05:01:32.189Z,1023.56
2023-02-16T05:02:32.102Z,1023.59
2023-02-16T05:03:32.090Z,1023.57
2023-02-16T05:04:32.108Z,1023.57
2023-02-16T05:05:32.067Z,1023.57
2023-02-16T05:06:32.063Z,1023.61
2023-02-16T05:07:32.063Z,1023.63
2023-02-16T05:08:32.035Z,1023.60
2023-02-16T05:09:32.022Z,1023.63
2023-02-16T05:10:32.008Z,1023.61
2023-02-16T05:11:32.022Z,1023.61
2023-02-16T05:12:32.005Z,1023.60
2023-02-16T05:13:31.997Z,1023.63
2023-02-16T05:14:31.951Z,1023.63
2023-02-16T05:15:32.018Z,1023.64
2023-02-16T05:16:31.931Z,1023.65
2023-02-16T05:17:38.957Z,1023.65
2023-02-16T05:18:31.920Z,1023.62
2023-02-16T05:19:39.917Z,1023.62
2023-02-16T05:20:31.888Z,1023.60
2023-02-16T05:21:39.885Z,1023.61
2023-02-16T05:22:39.292Z,1023.58
2023-02-16T05:23:31.963Z,1023.58
2023-02-16T05:24:31.882Z,1023.54
2023-02-16T05:25:31.833Z,1023.34
2023-02-16T05:26:31.824Z,1023.33
2023-02-16T05:27:31.851Z,1023.32
2023-02-16T05:28:31.867Z,1023.31
2023-02-16T05:29:31.794Z,1023.30
2023-02-16T05:30:32.165Z,1023.33
2023-02-16T05:31:31.864Z,1023.32
2023-02-16T05:32:31.795Z,1023.28
2023-02-16T05:33:31.754Z,1023.31
2023-02-16T05:34:31.762Z,1023.30
2023-02-16T05:35:31.732Z,1023.31
2023-02-16T05:36:31.733Z,1023.28
2023-02-16T05:37:32.046Z,1023.29
2023-02-16T05:38:31.695Z,1023.23
2023-02-16T05:39:31.697Z,1023.14
2023-02-16T05:40:31.680Z,1023.16
2023-02-16T05:41:31.685Z,1023.13
2023-02-16T05:42:31.666Z,1023.03
2023-02-16T05:43:31.657Z,1023.02
2023-02-16T05:44:31.888Z,1023.13
2023-02-16T05:45:31.616Z,1023.03
2023-02-16T05:46:31.691Z,1022.99
2023-02-16T05:47:31.919Z,1022.96
2023-02-16T05:48:31.592Z,1022.97
2023-02-16T05:49:31.616Z,1022.93
2023-02-16T05:50:31.569Z,1022.92
2023-02-16T05:51:31.559Z,1022.93
2023-02-16T05:52:31.557Z,1022.99
2023-02-16T05:53:31.535Z,1023.00
2023-02-16T05:54:31.519Z,1023.03
2023-02-16T05:55:31.513Z,1022.99
2023-02-16T05:56:31.560Z,1022.98
2023-02-16T05:57:31.493Z,1022.99
2023-02-16T05:58:31.513Z,1023.00
2023-02-16T05:59:31.464Z,1023.00
2023-02-16T06:00:31.459Z,1022.94
2023-02-16T06:01:31.472Z,1022.92
2023-02-16T06:02:31.476Z,1022.94
2023-02-16T06:03:31.420Z,1022.90
2023-02-16T06:04:31.410Z,1022.92
2023-02-16T06:05:31.410Z,1022.94
2023-02-16T06:06:31.404Z,1022.98
2023-02-16T06:07:31.382Z,1023.04
2023-02-16T06:08:31.377Z,1023.12
2023-02-16T06:09:31.388Z,1023.03
2023-02-16T06:10:31.357Z,1023.00
2023-02-16T06:11:31.360Z,1023.00
2023-02-16T06:12:31.313Z,1022.97
2023-02-16T06:13:31.321Z,1022.94
2023-02-16T06:14:31.308Z,1022.98
2023-02-16T06:15:31.307Z,1022.90
2023-02-16T06:16:31.280Z,1022.89
2023-02-16T06:17:31.273Z,1022.85
2023-02-16T06:18:31.283Z,1022.76
2023-02-16T06:19:31.249Z,1022.76
2023-02-16T06:20:31.258Z,1022.82
2023-02-16T06:21:31.248Z,1022.79
2023-02-16T06:22:31.206Z,1022.72
2023-02-16T06:23:31.227Z,1022.72
2023-02-16T06:24:31.330Z,1022.76
2023-02-16T06:25:31.192Z,1022.77
2023-02-16T06:26:31.170Z,1022.67
2023-02-16T06:27:31.171Z,1022.71
2023-02-16T06:28:31.154Z,1022.76
2023-02-16T06:29:31.141Z,1022.78
2023-02-16T06:30:31.196Z,1022.66
2023-02-16T06:31:31.240Z,1022.71
2023-02-16T06:32:31.204Z,1022.71
2023-02-16T06:33:31.113Z,1022.65
2023-02-16T06:34:31.447Z,1022.69
2023-02-16T06:35:31.054Z,1022.63
2023-02-16T06:36:31.058Z,1022.57
2023-02-16T06:37:31.061Z,1022.53
2023-02-16T06:38:31.387Z,1022.51
2023-02-16T06:39:31.011Z,1022.54
2023-02-16T06:40:31.015Z,1022.49
2023-02-16T06:41:31.677Z,1022.43
2023-02-16T06:42:30.986Z,1022.38
2023-02-16T06:43:31.866Z,1022.43
2023-02-16T06:44:30.952Z,1022.41
2023-02-16T06:45:31.321Z,1022.48
2023-02-16T06:46:30.986Z,1022.52
2023-02-16T06:47:30.945Z,1022.63
2023-02-16T06:48:30.925Z,1022.61
2023-02-16T06:49:30.921Z,1022.67
2023-02-16T06:50:30.925Z,1022.72
2023-02-16T06:51:31.282Z,1022.82
2023-02-16T06:52:37.893Z,1022.91
2023-02-16T06:53:39.155Z,1022.96
2023-02-16T06:54:37.862Z,1022.92
2023-02-16T06:55:39.175Z,1022.94
2023-02-16T06:56:38.364Z,1023.00
2023-02-16T06:57:30.836Z,1022.96
2023-02-16T06:58:30.819Z,1022.97
2023-02-16T06:59:31.085Z,1023.02
2023-02-16T07:00:30.883Z,1023.05
2023-02-16T07:01:30.784Z,1023.26
2023-02-16T07:02:31.038Z,1023.26
2023-02-16T07:03:30.822Z,1023.33
2023-02-16T07:04:30.744Z,1023.52
2023-02-16T07:05:31.066Z,1023.57
2023-02-16T07:06:31.024Z,1023.59
2023-02-16T07:07:30.696Z,1023.61
2023-02-16T07:08:32.519Z,1023.66
2023-02-16T07:09:31.044Z,1023.88
2023-02-16T07:10:48.683Z,1023.89
2023-02-16T07:11:31.669Z,1023.88
2023-02-16T07:12:30.658Z,1023.93
2023-02-16T07:13:30.903Z,1023.93
2023-02-16T07:14:30.928Z,1023.94
2023-02-16T07:15:30.614Z,1023.96
2023-02-16T07:16:30.651Z,1023.99
2023-02-16T07:17:30.576Z,1024.05
2023-02-16T07:18:30.581Z,1024.24
2023-02-16T07:19:30.587Z,1024.28
2023-02-16T07:20:30.593Z,1024.26
2023-02-16T07:21:30.549Z,1024.28
2023-02-16T07:22:30.544Z,1024.33
2023-02-16T07:23:30.545Z,1024.41
2023-02-16T07:24:30.877Z,1024.61
2023-02-16T07:25:30.538Z,1024.69
2023-02-16T07:26:30.617Z,1024.73
2023-02-16T07:27:30.502Z,1024.69
2023-02-16T07:28:30.478Z,1024.72
2023-02-16T07:29:30.803Z,1024.72
2023-02-16T07:30:30.514Z,1024.76
2023-02-16T07:31:30.553Z,1024.98
2023-02-16T07:32:30.477Z,1024.99
2023-02-16T07:33:30.419Z,1024.96
2023-02-16T07:34:30.433Z,1025.03
2023-02-16T07:35:33.182Z,1025.17
2023-02-16T07:36:30.381Z,1025.40
2023-02-16T07:37:34.387Z,1025.51
2023-02-16T07:38:30.382Z,1025.76
2023-02-16T07:39:30.365Z,1025.83
2023-02-16T07:40:30.330Z,1025.93
2023-02-16T07:41:30.349Z,1025.99
2023-02-16T07:42:30.300Z,1026.25
2023-02-16T07:43:30.328Z,1026.34
2023-02-16T07:44:30.300Z,1026.34
2023-02-16T07:45:30.321Z,1026.32
2023-02-16T07:46:32.382Z,1026.26
2023-02-16T07:47:30.243Z,1026.30
2023-02-16T07:48:30.263Z,1026.33
2023-02-16T07:49:30.225Z,1026.35
2023-02-16T07:50:30.223Z,1026.37
2023-02-16T07:51:30.210Z,1026.41
2023-02-16T07:52:30.200Z,1026.45
2023-02-16T07:53:30.181Z,1026.68
2023-02-16T07:54:30.180Z,1026.72
2023-02-16T07:55:30.161Z,1026.75
2023-02-16T07:56:30.185Z,1026.78
2023-02-16T07:57:30.170Z,1026.80
2023-02-16T07:58:30.141Z,1026.80
2023-02-16T07:59:30.119Z,1026.84
2023-02-16T08:00:30.180Z,1027.04
2023-02-16T08:01:30.143Z,1026.83
2023-02-16T08:02:33.024Z,1026.83
2023-02-16T08:03:30.140Z,1026.85
2023-02-16T08:04:30.081Z,1026.85
2023-02-16T08:05:30.057Z,1026.76
2023-02-16T08:06:30.036Z,1026.74
2023-02-16T08:07:30.033Z,1026.72
2023-02-16T08:08:30.033Z,1026.76
2023-02-16T08:09:30.335Z,1026.79
2023-02-16T08:10:30.024Z,1026.81
2023-02-16T08:11:30.010Z,1026.89
2023-02-16T08:12:29.989Z,1027.09
2023-02-16T08:13:29.981Z,1027.11
2023-02-16T08:14:29.963Z,1027.14
2023-02-16T08:15:29.933Z,1027.19
2023-02-16T08:16:29.986Z,1027.28
2023-02-16T08:17:29.923Z,1027.33
2023-02-16T08:18:29.946Z,1027.35
2023-02-16T08:19:29.904Z,1027.51
2023-02-16T08:20:48.237Z,1027.52
2023-02-16T08:21:30.886Z,1027.53
2023-02-16T08:22:29.877Z,1027.61
2023-02-16T08:23:29.866Z,1027.66
2023-02-16T08:24:36.850Z,1027.70
2023-02-16T08:25:36.851Z,1027.80
2023-02-16T08:26:37.378Z,1027.85
2023-02-16T08:27:36.827Z,1027.83
2023-02-16T08:28:36.869Z,1028.04
2023-02-16T08:29:36.826Z,1028.09
2023-02-16T08:30:29.840Z,1028.17
2023-02-16T08:31:29.994Z,1028.27
2023-02-16T08:32:29.837Z,1028.41
2023-02-16T08:33:29.749Z,1028.69
2023-02-16T08:34:29.748Z,1028.73
2023-02-16T08:35:30.040Z,1028.81
2023-02-16T08:36:29.726Z,1028.88
2023-02-16T08:37:29.731Z,1028.95
2023-02-16T08:38:29.697Z,1029.02
2023-02-16T08:39:29.686Z,1029.11
2023-02-16T08:40:29.704Z,1029.35
2023-02-16T08:41:30.011Z,1029.46
2023-02-16T08:42:29.667Z,1029.55
2023-02-16T08:43:29.689Z,1029.62
2023-02-16T08:44:29.928Z,1029.64
2023-02-16T08:45:29.660Z,1029.69
2023-02-16T08:46:29.723Z,1029.77
2023-02-16T08:47:29.630Z,1029.79
2023-02-16T08:48:29.580Z,1029.84
2023-02-16T08:49:29.602Z,1029.87
2023-02-16T08:50:29.874Z,1029.88
2023-02-16T08:51:29.554Z,1029.92
2023-02-16T08:52:29.532Z,1029.98
2023-02-16T08:53:29.547Z,1030.04
2023-02-16T08:54:29.548Z,1030.12
2023-02-16T08:55:29.532Z,1030.13
2023-02-16T08:56:29.504Z,1030.25
2023-02-16T08:57:29.483Z,1030.34
2023-02-16T08:58:29.595Z,1030.41
2023-02-16T08:59:29.723Z,1030.50
2023-02-16T09:00:29.464Z,1030.60
2023-02-16T09:01:29.536Z,1030.66
2023-02-16T09:02:29.472Z,1030.71
2023-02-16T09:03:29.432Z,1030.82
2023-02-16T09:04:29.453Z,1030.88
2023-02-16T09:05:29.387Z,1030.99
2023-02-16T09:06:29.401Z,1031.12
2023-02-16T09:07:29.376Z,1031.22
2023-02-16T09:08:29.354Z,1031.35
2023-02-16T09:09:29.343Z,1031.50
2023-02-16T09:10:29.320Z,1031.59
2023-02-16T09:11:29.343Z,1031.74
2023-02-16T09:12:29.325Z,1031.84
2023-02-16T09:13:29.295Z,1031.97
2023-02-16T09:14:29.282Z,1032.07
2023-02-16T09:15:29.273Z,1032.19
2023-02-16T09:16:29.317Z,1032.28
2023-02-16T09:17:29.263Z,1032.38
2023-02-16T09:18:29.235Z,1032.46
2023-02-16T09:19:29.231Z,1032.53
2023-02-16T09:20:29.216Z,1032.59
2023-02-16T09:21:29.211Z,1032.61
2023-02-16T09:22:29.322Z,1032.75
2023-02-16T09:23:29.188Z,1032.82
2023-02-16T09:24:29.172Z,1032.82
2023-02-16T09:25:29.152Z,1032.84
2023-02-16T09:26:29.181Z,1032.84
2023-02-16T09:27:29.134Z,1032.86
2023-02-16T09:28:29.354Z,1033.02
2023-02-16T09:29:29.117Z,1033.02
2023-02-16T09:30:29.186Z,1033.03
2023-02-16T09:31:29.290Z,1033.04
2023-02-16T09:32:29.118Z,1033.05
2023-02-16T09:33:29.072Z,1033.07
2023-02-16T09:34:29.059Z,1033.07
2023-02-16T09:35:29.050Z,1033.06
2023-02-16T09:36:29.061Z,1033.07
2023-02-16T09:37:29.023Z,1033.06
2023-02-16T09:38:29.313Z,1033.05
2023-02-16T09:39:29.013Z,1033.05
2023-02-16T09:40:28.990Z,1033.05
2023-02-16T09:41:28.996Z,1033.03
2023-02-16T09:42:28.990Z,1033.04
2023-02-16T09:43:28.955Z,1033.04
2023-02-16T09:44:28.956Z,1033.04
2023-02-16T09:45:28.929Z,1033.05
2023-02-16T09:46:29.020Z,1033.04
2023-02-16T09:47:28.913Z,1033.07
2023-02-16T09:48:28.906Z,1033.08
2023-02-16T09:49:29.046Z,1033.28
2023-02-16T09:50:50.758Z,1033.32
2023-02-16T09:51:34.461Z,1033.52
2023-02-16T09:52:29.874Z,1033.58
2023-02-16T09:53:28.893Z,1033.78
2023-02-16T09:54:28.904Z,1033.82
2023-02-16T09:55:28.844Z,1034.04
2023-02-16T09:56:28.830Z,1034.26
2023-02-16T09:57:28.834Z,1034.30
2023-02-16T09:58:28.796Z,1034.31
2023-02-16T09:59:36.782Z,1034.33
2023-02-16T10:00:35.823Z,1034.34
2023-02-16T10:01:28.833Z,1034.36
2023-02-16T10:02:35.814Z,1034.54
2023-02-16T10:03:31.549Z,1034.57
2023-02-16T10:04:28.728Z,1034.62
2023-02-16T10:05:28.720Z,1034.81
2023-02-16T10:06:28.984Z,1034.88
2023-02-16T10:07:28.722Z,1035.08
2023-02-16T10:08:29.023Z,1035.12
2023-02-16T10:09:28.702Z,1035.15
2023-02-16T10:10:28.667Z,1035.35
2023-02-16T10:11:28.683Z,1035.37
2023-02-16T10:12:28.682Z,1035.42
2023-02-16T10:13:28.639Z,1035.63
2023-02-16T10:14:28.621Z,1035.62
2023-02-16T10:15:28.681Z,1035.68
2023-02-16T10:16:28.622Z,1035.75
2023-02-16T10:17:28.690Z,1036.01
2023-02-16T10:18:28.584Z,1036.23
2023-02-16T10:19:28.558Z,1036.31
2023-02-16T10:20:28.555Z,1036.53
2023-02-16T10:21:28.540Z,1036.60
2023-02-16T10:22:28.571Z,1036.65
2023-02-16T10:23:28.533Z,1036.86
2023-02-16T10:24:28.501Z,1036.88
2023-02-16T10:25:28.496Z,1036.92
2023-02-16T10:26:28.494Z,1036.91
2023-02-16T10:27:28.484Z,1036.92
2023-02-16T10:28:28.452Z,1036.90
2023-02-16T10:29:28.457Z,1036.93
2023-02-16T10:30:28.807Z,1036.94
2023-02-16T10:31:28.503Z,1037.16
2023-02-16T10:32:28.450Z,1037.20
2023-02-16T10:33:28.412Z,1037.24
2023-02-16T10:34:28.396Z,1037.27
2023-02-16T10:35:28.385Z,1037.08
2023-02-16T10:36:28.361Z,1036.62
2023-02-16T10:37:28.380Z,1035.71
2023-02-16T10:38:28.373Z,1034.93
2023-02-16T10:39:28.435Z,1034.16
2023-02-16T10:40:28.334Z,1033.68
2023-02-16T10:41:28.604Z,1032.97
2023-02-16T10:42:28.421Z,1032.25
2023-02-16T10:43:28.324Z,1031.11
2023-02-16T10:44:28.290Z,1030.19
2023-02-16T10:45:28.274Z,1029.31
2023-02-16T10:46:28.306Z,1028.65
2023-02-16T10:47:28.293Z,1028.26
2023-02-16T10:48:28.229Z,1028.38
2023-02-16T10:49:28.237Z,1028.68
2023-02-16T10:50:28.218Z,1028.73
2023-02-16T10:51:28.229Z,1028.83
2023-02-16T10:52:28.203Z,1028.51
2023-02-16T10:53:28.531Z,1027.90
2023-02-16T10:54:28.191Z,1027.55
2023-02-16T10:55:28.170Z,1027.95
2023-02-16T10:56:28.157Z,1028.09
2023-02-16T10:57:28.221Z,1028.37
2023-02-16T10:58:28.123Z,1029.04
2023-02-16T10:59:28.114Z,1029.62
2023-02-16T11:00:28.363Z,1030.32
2023-02-16T11:01:28.158Z,1031.21
2023-02-16T11:02:28.092Z,1031.99
2023-02-16T11:03:28.123Z,1033.10
2023-02-16T11:04:28.094Z,1034.21
2023-02-16T11:05:28.051Z,1035.25
2023-02-16T11:06:28.033Z,1036.06
2023-02-16T11:07:28.075Z,1036.34
2023-02-16T11:08:29.952Z,1036.61
2023-02-16T11:09:28.024Z,1036.31
2023-02-16T11:10:27.994Z,1036.09
2023-02-16T11:11:28.004Z,1035.76
2023-02-16T11:12:27.982Z,1035.55
2023-02-16T11:13:27.964Z,1035.54
2023-02-16T11:14:27.955Z,1035.64
2023-02-16T11:15:28.047Z,1035.90
2023-02-16T11:16:27.940Z,1035.94
2023-02-16T11:17:27.951Z,1035.94
2023-02-16T11:18:27.923Z,1035.76
2023-02-16T11:19:28.230Z,1035.90
2023-02-16T11:20:27.898Z,1035.78
2023-02-16T11:21:28.178Z,1035.68
2023-02-16T11:22:27.892Z,1035.62
2023-02-16T11:23:27.856Z,1035.37
2023-02-16T11:24:27.910Z,1034.62
2023-02-16T11:25:27.828Z,1033.24
2023-02-16T11:26:27.884Z,1031.61
2023-02-16T11:27:27.868Z,1029.89
2023-02-16T11:28:27.843Z,1028.63
2023-02-16T11:29:27.795Z,1027.79
2023-02-16T11:30:27.817Z,1026.96
2023-02-16T11:31:34.920Z,1026.47
2023-02-16T11:32:34.777Z,1025.43
2023-02-16T11:33:34.781Z,1024.59
2023-02-16T11:34:27.738Z,1023.13
2023-02-16T11:35:27.706Z,1021.12
2023-02-16T11:36:34.729Z,1019.29
2023-02-16T11:37:34.721Z,1017.51
2023-02-16T11:38:34.703Z,1015.61
2023-02-16T11:39:27.678Z,1013.79
2023-02-16T11:40:27.671Z,1012.02
2023-02-16T11:41:27.643Z,1011.59
2023-02-16T11:42:27.665Z,1011.89
2023-02-16T11:43:27.669Z,1011.51
2023-02-16T11:44:27.893Z,1011.41
2023-02-16T11:45:29.619Z,1011.72
2023-02-16T11:46:30.470Z,1012.54
2023-02-16T11:47:27.613Z,1012.84
2023-02-16T11:48:27.573Z,1013.26
2023-02-16T11:49:27.555Z,1013.75
2023-02-16T11:50:27.549Z,1014.80
2023-02-16T11:51:27.539Z,1016.29
2023-02-16T11:52:27.555Z,1018.38
2023-02-16T11:53:27.511Z,1019.85
2023-02-16T11:54:27.529Z,1021.65
2023-02-16T11:55:27.488Z,1023.41
2023-02-16T11:56:27.508Z,1024.23
2023-02-16T11:57:27.489Z,1024.88
2023-02-16T11:58:27.506Z,1024.69
2023-02-16T11:59:27.448Z,1023.44
2023-02-16T12:00:27.433Z,1022.24
2023-02-16T12:01:27.424Z,1020.18
2023-02-16T12:02:27.709Z,1017.66
2023-02-16T12:03:27.425Z,1015.15
2023-02-16T12:04:27.399Z,1012.76
2023-02-16T12:05:27.716Z,1011.37